Airfield :
LOGIN :

Register | Disclaimer

   EN    FR    IT 

 










Legend :    VFR   Marginal VFR   IFR   Intensive IFR   Very Intensive IFR
Visi :
Ceiling :
>= 8 km
>= 3000ft
5 to 8 km
1000 to 3000 ft
1500m to 5 km
500 to 1000 ft
800 to 1500m
200 to 500 ft
< 800m
< 200 ft
Symbols :   Thunderstorms  Fog  Heavy snow  Heavy precipitations  Wind > 20 kt
SIGMETs :     Misc.  Thunderstorms  Icing  Turbulence  Mountain Waves  Volcanic Ashes







- Airport Elevation : 93 ft
- IATA code : XRY


LEJR - Jerez

CURRENT METAR :
  • 241000Z VRB03KT CAVOK 22/10 Q1014

EXPIRED METARs :
  • 240930Z VRB04KT CAVOK 21/11 Q1014
  • 240900Z 29006KT 220V010 CAVOK 20/11 Q1014
  • 240830Z 26004KT 210V320 CAVOK 18/10 Q1014
  • 240800Z 30005KT 270V330 CAVOK 17/10 Q1014
  • 240730Z 28004KT 240V340 CAVOK 16/09 Q1014

TAF TAF LEJR
Valid from the 24 at 06:00 until the 25 at 06:00 UTC


240500Z 2406/2506 VRB03KT CAVOK TX30/2414Z TN14/2406Z
BECMG 2412/2414 27012KT
BECMG 2418/2420 18008KT
No reported NOTAMs for that airfield.
2 SIGMETs reported for the Madrid FIR (LECM) :
 
Embedded thunderstorms
LECM SIGMET 6 VALID 240930/241130 LEVA
LECM MADRID FIR/UIR EMBD TS OBS AT 0930Z WI N4113 W00037 - N3938 W00105 - N3948 W00208 - N4129 W00131 - N4113 W00037 TOP FL320 MOV E NC=
Severe turbulence
LECM SIGMET 4 VALID 240800/241200 LEVA
LECM MADRID UIR SEV TURB FCST WI N4347 W00234 - N4155 W00334 - N4119 W00148 - N4253 W00047 - N4347 W00234 FL250/340 MOV E WKN=



MET'MAP, your aeronautical weather chart ! - Copyright ORBIFLY December 2007 - Disclaimer

ORBIFLY MET'MAP TEAM :

Programming & Development : Alexandra Zaïnal
Concept & Development : Baudouin d'Aumeries
Co-Development & Prog : Marc-Olivier Méhu
Technical & hardware support : Manuel Goepfert

Contact : metmap@orbifly.com




SOURCES & CREDITS :

   NOAA